SVFU weather

La Fortuna Airport
San Antonio de Caparo, Tachira, Venezuela

Public forecast

Using degrees Celsius for public forecast. Weather courtesy of forecast.io.

METAR (pilot weather report)

Report is more than 6 hours old.

Closest report is Mayor Buenaventura Vivas International Airport, 33.8 nm (62.7 km) W. Retrieved 2018/06/14 13:00 UTC (10 months ago):

SVSO 141300Z /////KT 9999 BKN020 24/22 Q1016

TAF (pilot weather forecast)

Closest forecast is San Antonio Del Tachira Airport, 59.9 nm (111.0 km) WNW. Retrieved 2019/04/22 18:03 UTC (0 seconds ago):

TAF TAF SVSA 220400Z 2218/2318 16008KT 9999 SCT020 TX32/18Z TN23/09Z TEMPO 2218/2222 15008KT 8000 DZ BKN020